Captain Hank — WCR9342 — position and weather

sailwx.info

Track history (hours):
 
Tides and Currents Weather Stations Pressure Air Temp Water Temp Dewpoint Dewpoint Depression Visibility Wind Speed Wind Dir Waves Ship Positions

Captain Hank

Owner: SALISBURY TOWING CORPORATION, Havre de Grace, MD. More information available from US FCC via Universal Licensing System and Coast Guard Vessel Documentation Center.

Last reported at 2018-Jan-20 14:10 UTC. Time now 2018-Jan-21 18:18 UTC.
Position N 38°49' W 076°26'.

Length 24 m.

Type: Tug. MMSI: 367031390.

Date/timePositionNaut miles runAvg speedWind from/ knotsBaromVisibWave heightAir tempDewpointWater temp
2018-Jan-20 14:10N 38°49' W 076°26'3 7.2
2018-Jan-20 13:43N 38°52' W 076°25'4 7.0
2018-Jan-20 13:07N 38°56' W 076°24'1 6.9
2018-Jan-20 12:57N 38°57' W 076°24'3 6.9
2018-Jan-20 12:30N 38°60' W 076°23'3 6.6
2018-Jan-20 12:00N 39°03' W 076°22'9 0.9
2018-Jan-20 01:46N 39°12' W 076°24'2 8.3
2018-Jan-20 01:30N 39°11' W 076°26'4 7.8
2018-Jan-20 00:57N 39°13' W 076°31'4 8.1
2018-Jan-20 00:30N 39°15' W 076°35'1 2.7
2018-Jan-20 00:00N 39°15' W 076°36'0 0.1
2018-Jan-19 23:30N 39°15' W 076°36'0 0.0
2018-Jan-19 23:00N 39°15' W 076°36'0 0.0
2018-Jan-19 22:30N 39°15' W 076°36'0 0.0
2018-Jan-19 21:58N 39°15' W 076°36'0 0.0
2018-Jan-19 21:30N 39°15' W 076°36'0 0.0
2018-Jan-19 21:00N 39°15' W 076°36'0 0.0
2018-Jan-19 20:27N 39°15' W 076°36'0 0.0
2018-Jan-19 19:46N 39°15' W 076°36'0 0.0
2018-Jan-19 19:29N 39°15' W 076°36'0 0.0
2018-Jan-19 18:55N 39°15' W 076°36'0 0.0
2018-Jan-19 18:04N 39°15' W 076°36'0 0.1
2018-Jan-19 18:00N 39°15' W 076°36'0 0.0
2018-Jan-19 17:15N 39°15' W 076°36'0 0.0
2018-Jan-19 16:58N 39°15' W 076°36'0 0.0
2018-Jan-19 16:18N 39°15' W 076°36'0 0.0
2018-Jan-19 15:59N 39°15' W 076°36'0 0.0
2018-Jan-19 15:17N 39°15' W 076°36'0 0.0
2018-Jan-19 14:15N 39°15' W 076°36'0 0.0
2018-Jan-19 13:55N 39°15' W 076°36'0 0.0
2018-Jan-19 13:30N 39°15' W 076°36'0 0.0
2018-Jan-19 13:00N 39°15' W 076°36'0 0.0
2018-Jan-19 12:30N 39°15' W 076°36'0 0.0
2018-Jan-19 12:00N 39°15' W 076°36'0 0.0
2018-Jan-19 11:30N 39°15' W 076°36'0 0.0
2018-Jan-19 10:58N 39°15' W 076°36'0 0.1
2018-Jan-19 10:31N 39°15' W 076°36'1 1.1
2018-Jan-19 10:00N 39°15' W 076°36'3 5.9
2018-Jan-19 09:30N 39°14' W 076°32'4 7.0
2018-Jan-19 09:00N 39°12' W 076°29'10 6.3
2018-Jan-19 07:29N 39°15' W 076°17'3 7.2
2018-Jan-19 07:00N 39°17' W 076°14'4 7.9
2018-Jan-19 06:30N 39°21' W 076°11'4 7.9
2018-Jan-19 05:59N 39°23' W 076°06'3 7.2
2018-Jan-19 05:30N 39°25' W 076°03'3 6.5
2018-Jan-19 05:00N 39°28' W 076°03'3 6.2
2018-Jan-19 04:30N 39°30' W 076°05'2 4.6
2018-Jan-19 04:00N 39°33' W 076°04'2 4.4
2018-Jan-19 03:30N 39°34' W 076°06'0 0.0
2018-Jan-19 03:00N 39°34' W 076°06'0 0.0
2018-Jan-19 02:30N 39°34' W 076°06'0 0.0
2018-Jan-19 02:00N 39°34' W 076°06'0 0.0
2018-Jan-19 01:30N 39°34' W 076°06'0 0.0
2018-Jan-19 01:00N 39°34' W 076°06'0 0.0
2018-Jan-19 00:30N 39°34' W 076°06'0 0.0
2018-Jan-19 00:00N 39°34' W 076°06'2 4.5
2018-Jan-18 23:30N 39°33' W 076°04'2 3.8
2018-Jan-18 22:58N 39°34' W 076°06'0 0.6
2018-Jan-18 22:30N 39°34' W 076°06'3 6.9
2018-Jan-18 22:00N 39°31' W 076°05'4 7.1
2018-Jan-18 21:30N 39°28' W 076°03'4 7.4
2018-Jan-18 20:59N 39°24' W 076°04'20 8.0
2018-Jan-18 18:27N 39°12' W 076°24'4 8.0
2018-Jan-18 18:00N 39°12' W 076°29'4 9.0
2018-Jan-18 17:30N 39°15' W 076°33'2 4.4
2018-Jan-18 17:00N 39°15' W 076°36'0 0.3
2018-Jan-18 16:30N 39°15' W 076°36'0 0.0
2018-Jan-18 16:00N 39°15' W 076°36'0 0.1
2018-Jan-18 15:30N 39°15' W 076°36'0 0.0
2018-Jan-18 15:00N 39°15' W 076°36'0 0.0
2018-Jan-18 14:14N 39°15' W 076°36'0 0.0
2018-Jan-18 13:45N 39°15' W 076°36'0 0.0
2018-Jan-18 13:30N 39°15' W 076°36'0 0.0
2018-Jan-18 13:00N 39°15' W 076°36'0 0.0
2018-Jan-18 12:30N 39°15' W 076°36'0 0.0
2018-Jan-18 12:00N 39°15' W 076°36'0 0.0
2018-Jan-18 11:29N 39°15' W 076°36'0 0.0
2018-Jan-18 11:00N 39°15' W 076°36'0 0.0
2018-Jan-18 10:30N 39°15' W 076°36'0 0.2
2018-Jan-18 10:00N 39°15' W 076°36'0 0.5
2018-Jan-18 09:30N 39°15' W 076°36'0 0.6
2018-Jan-18 09:00N 39°15' W 076°36'0 0.1
2018-Jan-18 08:30N 39°15' W 076°36'2 3.7
2018-Jan-18 07:56N 39°14' W 076°33'3 6.6
2018-Jan-18 07:30N 39°12' W 076°31'4 6.7
2018-Jan-18 06:58N 39°11' W 076°27'5 6.0
2018-Jan-18 06:12N 39°13' W 076°21'1 6.3
2018-Jan-18 05:59N 39°14' W 076°20'4 6.6
2018-Jan-18 05:26N 39°16' W 076°16'3 6.9
2018-Jan-18 05:00N 39°18' W 076°13'4 7.6
2018-Jan-18 04:30N 39°21' W 076°10'4 7.3
2018-Jan-18 04:00N 39°23' W 076°06'3 6.5
2018-Jan-18 03:30N 39°25' W 076°03'3 5.8
2018-Jan-18 03:00N 39°28' W 076°03'3 6.0
2018-Jan-18 02:31N 39°30' W 076°05'3 5.7
2018-Jan-18 02:00N 39°33' W 076°05'0 0.3
2018-Jan-18 01:30N 39°33' W 076°04'0 0.0
2018-Jan-18 01:00N 39°33' W 076°04'0 0.0
2018-Jan-18 00:01N 39°33' W 076°04'0 0.0
2018-Jan-17 23:57N 39°33' W 076°04'  
2018-Jan-12 15:00N 36°50' W 076°17'0 0.0
2018-Jan-12 14:30N 36°50' W 076°17'0 0.0
2018-Jan-12 14:00N 36°50' W 076°17'0 0.0
2018-Jan-12 13:30N 36°50' W 076°17'0 0.0
2018-Jan-12 13:00N 36°50' W 076°17'0 0.0
2018-Jan-12 12:30N 36°50' W 076°17'0 0.0
2018-Jan-12 12:00N 36°50' W 076°17'0 0.0
2018-Jan-12 11:30N 36°50' W 076°17'0 0.0
2018-Jan-12 11:00N 36°50' W 076°17'0 0.0
2018-Jan-12 10:30N 36°50' W 076°17'0 0.0
2018-Jan-12 10:00N 36°50' W 076°17'0 0.0
2018-Jan-12 09:30N 36°50' W 076°17'0 0.0
2018-Jan-12 09:00N 36°50' W 076°17'0 0.0
2018-Jan-12 08:30N 36°50' W 076°17'0 0.0
2018-Jan-12 08:00N 36°50' W 076°17'0 0.0
2018-Jan-12 07:30N 36°50' W 076°17'0 0.0
2018-Jan-12 07:00N 36°50' W 076°17'0 0.0
2018-Jan-12 06:28N 36°50' W 076°17'0 0.0
2018-Jan-12 06:00N 36°50' W 076°17'0 0.0
2018-Jan-12 05:30N 36°50' W 076°17'0 0.0
2018-Jan-12 05:00N 36°50' W 076°17'0 0.0
2018-Jan-12 04:30N 36°50' W 076°17'0 0.0
2018-Jan-12 03:59N 36°50' W 076°17'0 0.0
2018-Jan-12 03:30N 36°50' W 076°17'0 0.0
2018-Jan-12 03:00N 36°50' W 076°17'0 0.0
2018-Jan-12 02:30N 36°50' W 076°17'0 0.0
2018-Jan-12 02:00N 36°50' W 076°17'0 0.0
2018-Jan-12 01:30N 36°50' W 076°17'0 0.0
2018-Jan-12 01:00N 36°50' W 076°17'0 0.0
2018-Jan-12 00:30N 36°50' W 076°17'2 4.3
2018-Jan-12 00:00N 36°50' W 076°15'1 1.7
2018-Jan-11 23:30N 36°50' W 076°16'1 2.6
2018-Jan-11 23:00N 36°50' W 076°17'0 0.0
2018-Jan-11 22:28N 36°50' W 076°17'0 0.0
2018-Jan-11 22:00N 36°50' W 076°17'0 0.0
2018-Jan-11 21:30N 36°50' W 076°17'0 0.0
2018-Jan-11 20:31N 36°50' W 076°17'0 0.0
2018-Jan-11 20:30N 36°50' W 076°17'0 0.0
2018-Jan-11 20:00N 36°50' W 076°17'0 0.0
2018-Jan-11 19:30N 36°50' W 076°17'0 0.0
2018-Jan-11 19:00N 36°50' W 076°17'0 0.0
2018-Jan-11 18:30N 36°50' W 076°17'0 0.0
2018-Jan-11 18:00N 36°50' W 076°17'0 0.0
2018-Jan-11 17:30N 36°50' W 076°17'0 0.0
2018-Jan-11 17:00N 36°50' W 076°17'0 0.0
2018-Jan-11 16:30N 36°50' W 076°17'0 0.0
2018-Jan-11 16:00N 36°50' W 076°17'0 0.0
2018-Jan-11 15:30N 36°50' W 076°17'0 0.0
2018-Jan-11 15:00N 36°50' W 076°17'0 0.0
2018-Jan-11 14:30N 36°50' W 076°17'0 0.0
2018-Jan-11 14:00N 36°50' W 076°17'0 0.0
2018-Jan-11 13:30N 36°50' W 076°17'0 0.0
2018-Jan-11 13:00N 36°50' W 076°17'0 0.0
2018-Jan-11 12:30N 36°50' W 076°17'0 0.0
2018-Jan-11 12:00N 36°50' W 076°17'0 0.0
2018-Jan-11 11:30N 36°50' W 076°17'0 0.0
2018-Jan-11 10:52N 36°50' W 076°17'0 0.0
2018-Jan-11 10:30N 36°50' W 076°17'0 0.0
2018-Jan-11 10:00N 36°50' W 076°17'0 0.0
2018-Jan-11 09:30N 36°50' W 076°17'0 0.0
2018-Jan-11 09:00N 36°50' W 076°17'0 0.0
2018-Jan-11 08:30N 36°50' W 076°17'0 0.0
2018-Jan-11 08:00N 36°50' W 076°17'0 0.0
2018-Jan-11 07:30N 36°50' W 076°17'0 0.0
2018-Jan-11 07:00N 36°50' W 076°17'0 0.0
2018-Jan-11 06:30N 36°50' W 076°17'0 0.0
2018-Jan-11 06:00N 36°50' W 076°17'0 0.0
2018-Jan-11 05:30N 36°50' W 076°17'0 0.0
2018-Jan-11 04:59N 36°50' W 076°17'0 0.0
2018-Jan-11 04:29N 36°50' W 076°17'0 0.0
2018-Jan-11 04:00N 36°50' W 076°17'0 0.0
2018-Jan-11 03:30N 36°50' W 076°17'0 0.0
2018-Jan-11 03:00N 36°50' W 076°17'0 0.0
2018-Jan-11 02:30N 36°50' W 076°17'0 0.0
2018-Jan-11 01:59N 36°50' W 076°17'0 0.0
2018-Jan-11 01:30N 36°50' W 076°17'0 0.0
2018-Jan-11 01:00N 36°50' W 076°17'0 0.0
2018-Jan-11 00:30N 36°50' W 076°17'0 0.0
2018-Jan-11 00:00N 36°50' W 076°17'0 0.0
2018-Jan-10 23:30N 36°50' W 076°17'0 0.0
2018-Jan-10 23:00N 36°50' W 076°17'0 0.0
2018-Jan-10 22:30N 36°50' W 076°17'0 0.0
2018-Jan-10 22:00N 36°50' W 076°17'0 0.0
2018-Jan-10 21:30N 36°50' W 076°17'0 0.0
2018-Jan-10 21:00N 36°50' W 076°17'0 0.0
2018-Jan-10 20:30N 36°50' W 076°17'0 0.0
2018-Jan-10 20:00N 36°50' W 076°17'0 0.0
2018-Jan-10 19:30N 36°50' W 076°17'0 0.0
2018-Jan-10 18:59N 36°50' W 076°17'0 0.0
2018-Jan-10 18:30N 36°50' W 076°17'0 0.0
2018-Jan-10 17:58N 36°50' W 076°17'1 1.6
2018-Jan-10 17:30N 36°50' W 076°18'2 3.8
2018-Jan-10 17:00N 36°48' W 076°18'3 5.7
2018-Jan-10 16:30N 36°51' W 076°17'0 0.1
2018-Jan-10 16:00N 36°51' W 076°17'2 4.7
2018-Jan-10 15:30N 36°51' W 076°20'2 3.6
2018-Jan-10 15:00N 36°51' W 076°18'  
Track history (hours):
 
Tides and Currents Weather Stations Pressure Air Temp Water Temp Dewpoint Dewpoint Depression Visibility Wind Speed Wind Dir Waves Ship Positions

Captain Hank

Owner: SALISBURY TOWING CORPORATION, Havre de Grace, MD. More information available from US FCC via Universal Licensing System and Coast Guard Vessel Documentation Center.

Last reported at 2018-Jan-20 14:10 UTC. Time now 2018-Jan-21 18:18 UTC.
Position N 38°49' W 076°26'.

Length 24 m.

Type: Tug. MMSI: 367031390.

Date/timePositionNaut miles runAvg speedWind from/ knotsBaromVisibWave heightAir tempDewpointWater temp
2018-Jan-20 14:10N 38°49' W 076°26'3 7.2
2018-Jan-20 13:43N 38°52' W 076°25'4 7.0
2018-Jan-20 13:07N 38°56' W 076°24'1 6.9
2018-Jan-20 12:57N 38°57' W 076°24'3 6.9
2018-Jan-20 12:30N 38°60' W 076°23'3 6.6
2018-Jan-20 12:00N 39°03' W 076°22'9 0.9
2018-Jan-20 01:46N 39°12' W 076°24'2 8.3
2018-Jan-20 01:30N 39°11' W 076°26'4 7.8
2018-Jan-20 00:57N 39°13' W 076°31'4 8.1
2018-Jan-20 00:30N 39°15' W 076°35'1 2.7
2018-Jan-20 00:00N 39°15' W 076°36'0 0.1
2018-Jan-19 23:30N 39°15' W 076°36'0 0.0
2018-Jan-19 23:00N 39°15' W 076°36'0 0.0
2018-Jan-19 22:30N 39°15' W 076°36'0 0.0
2018-Jan-19 21:58N 39°15' W 076°36'0 0.0
2018-Jan-19 21:30N 39°15' W 076°36'0 0.0
2018-Jan-19 21:00N 39°15' W 076°36'0 0.0
2018-Jan-19 20:27N 39°15' W 076°36'0 0.0
2018-Jan-19 19:46N 39°15' W 076°36'0 0.0
2018-Jan-19 19:29N 39°15' W 076°36'0 0.0
2018-Jan-19 18:55N 39°15' W 076°36'0 0.0
2018-Jan-19 18:04N 39°15' W 076°36'0 0.1
2018-Jan-19 18:00N 39°15' W 076°36'0 0.0
2018-Jan-19 17:15N 39°15' W 076°36'0 0.0
2018-Jan-19 16:58N 39°15' W 076°36'0 0.0
2018-Jan-19 16:18N 39°15' W 076°36'0 0.0
2018-Jan-19 15:59N 39°15' W 076°36'0 0.0
2018-Jan-19 15:17N 39°15' W 076°36'0 0.0
2018-Jan-19 14:15N 39°15' W 076°36'0 0.0
2018-Jan-19 13:55N 39°15' W 076°36'0 0.0
2018-Jan-19 13:30N 39°15' W 076°36'0 0.0
2018-Jan-19 13:00N 39°15' W 076°36'0 0.0
2018-Jan-19 12:30N 39°15' W 076°36'0 0.0
2018-Jan-19 12:00N 39°15' W 076°36'0 0.0
2018-Jan-19 11:30N 39°15' W 076°36'0 0.0
2018-Jan-19 10:58N 39°15' W 076°36'0 0.1
2018-Jan-19 10:31N 39°15' W 076°36'1 1.1
2018-Jan-19 10:00N 39°15' W 076°36'3 5.9
2018-Jan-19 09:30N 39°14' W 076°32'4 7.0
2018-Jan-19 09:00N 39°12' W 076°29'10 6.3
2018-Jan-19 07:29N 39°15' W 076°17'3 7.2
2018-Jan-19 07:00N 39°17' W 076°14'4 7.9
2018-Jan-19 06:30N 39°21' W 076°11'4 7.9
2018-Jan-19 05:59N 39°23' W 076°06'3 7.2
2018-Jan-19 05:30N 39°25' W 076°03'3 6.5
2018-Jan-19 05:00N 39°28' W 076°03'3 6.2
2018-Jan-19 04:30N 39°30' W 076°05'2 4.6
2018-Jan-19 04:00N 39°33' W 076°04'2 4.4
2018-Jan-19 03:30N 39°34' W 076°06'0 0.0
2018-Jan-19 03:00N 39°34' W 076°06'0 0.0
2018-Jan-19 02:30N 39°34' W 076°06'0 0.0
2018-Jan-19 02:00N 39°34' W 076°06'0 0.0
2018-Jan-19 01:30N 39°34' W 076°06'0 0.0
2018-Jan-19 01:00N 39°34' W 076°06'0 0.0
2018-Jan-19 00:30N 39°34' W 076°06'0 0.0
2018-Jan-19 00:00N 39°34' W 076°06'2 4.5
2018-Jan-18 23:30N 39°33' W 076°04'2 3.8
2018-Jan-18 22:58N 39°34' W 076°06'0 0.6
2018-Jan-18 22:30N 39°34' W 076°06'3 6.9
2018-Jan-18 22:00N 39°31' W 076°05'4 7.1
2018-Jan-18 21:30N 39°28' W 076°03'4 7.4
2018-Jan-18 20:59N 39°24' W 076°04'20 8.0
2018-Jan-18 18:27N 39°12' W 076°24'4 8.0
2018-Jan-18 18:00N 39°12' W 076°29'4 9.0
2018-Jan-18 17:30N 39°15' W 076°33'2 4.4
2018-Jan-18 17:00N 39°15' W 076°36'0 0.3
2018-Jan-18 16:30N 39°15' W 076°36'0 0.0
2018-Jan-18 16:00N 39°15' W 076°36'0 0.1
2018-Jan-18 15:30N 39°15' W 076°36'0 0.0
2018-Jan-18 15:00N 39°15' W 076°36'0 0.0
2018-Jan-18 14:14N 39°15' W 076°36'0 0.0
2018-Jan-18 13:45N 39°15' W 076°36'0 0.0
2018-Jan-18 13:30N 39°15' W 076°36'0 0.0
2018-Jan-18 13:00N 39°15' W 076°36'0 0.0
2018-Jan-18 12:30N 39°15' W 076°36'0 0.0
2018-Jan-18 12:00N 39°15' W 076°36'0 0.0
2018-Jan-18 11:29N 39°15' W 076°36'0 0.0
2018-Jan-18 11:00N 39°15' W 076°36'0 0.0
2018-Jan-18 10:30N 39°15' W 076°36'0 0.2
2018-Jan-18 10:00N 39°15' W 076°36'0 0.5
2018-Jan-18 09:30N 39°15' W 076°36'0 0.6
2018-Jan-18 09:00N 39°15' W 076°36'0 0.1
2018-Jan-18 08:30N 39°15' W 076°36'2 3.7
2018-Jan-18 07:56N 39°14' W 076°33'3 6.6
2018-Jan-18 07:30N 39°12' W 076°31'4 6.7
2018-Jan-18 06:58N 39°11' W 076°27'5 6.0
2018-Jan-18 06:12N 39°13' W 076°21'1 6.3
2018-Jan-18 05:59N 39°14' W 076°20'4 6.6
2018-Jan-18 05:26N 39°16' W 076°16'3 6.9
2018-Jan-18 05:00N 39°18' W 076°13'4 7.6
2018-Jan-18 04:30N 39°21' W 076°10'4 7.3
2018-Jan-18 04:00N 39°23' W 076°06'3 6.5
2018-Jan-18 03:30N 39°25' W 076°03'3 5.8
2018-Jan-18 03:00N 39°28' W 076°03'3 6.0
2018-Jan-18 02:31N 39°30' W 076°05'3 5.7
2018-Jan-18 02:00N 39°33' W 076°05'0 0.3
2018-Jan-18 01:30N 39°33' W 076°04'0 0.0
2018-Jan-18 01:00N 39°33' W 076°04'0 0.0
2018-Jan-18 00:01N 39°33' W 076°04'0 0.0
2018-Jan-17 23:57N 39°33' W 076°04'  
2018-Jan-12 15:00N 36°50' W 076°17'0 0.0
2018-Jan-12 14:30N 36°50' W 076°17'0 0.0
2018-Jan-12 14:00N 36°50' W 076°17'0 0.0
2018-Jan-12 13:30N 36°50' W 076°17'0 0.0
2018-Jan-12 13:00N 36°50' W 076°17'0 0.0
2018-Jan-12 12:30N 36°50' W 076°17'0 0.0
2018-Jan-12 12:00N 36°50' W 076°17'0 0.0
2018-Jan-12 11:30N 36°50' W 076°17'0 0.0
2018-Jan-12 11:00N 36°50' W 076°17'0 0.0
2018-Jan-12 10:30N 36°50' W 076°17'0 0.0
2018-Jan-12 10:00N 36°50' W 076°17'0 0.0
2018-Jan-12 09:30N 36°50' W 076°17'0 0.0
2018-Jan-12 09:00N 36°50' W 076°17'0 0.0
2018-Jan-12 08:30N 36°50' W 076°17'0 0.0
2018-Jan-12 08:00N 36°50' W 076°17'0 0.0
2018-Jan-12 07:30N 36°50' W 076°17'0 0.0
2018-Jan-12 07:00N 36°50' W 076°17'0 0.0
2018-Jan-12 06:28N 36°50' W 076°17'0 0.0
2018-Jan-12 06:00N 36°50' W 076°17'0 0.0
2018-Jan-12 05:30N 36°50' W 076°17'0 0.0
2018-Jan-12 05:00N 36°50' W 076°17'0 0.0
2018-Jan-12 04:30N 36°50' W 076°17'0 0.0
2018-Jan-12 03:59N 36°50' W 076°17'0 0.0
2018-Jan-12 03:30N 36°50' W 076°17'0 0.0
2018-Jan-12 03:00N 36°50' W 076°17'0 0.0
2018-Jan-12 02:30N 36°50' W 076°17'0 0.0
2018-Jan-12 02:00N 36°50' W 076°17'0 0.0
2018-Jan-12 01:30N 36°50' W 076°17'0 0.0
2018-Jan-12 01:00N 36°50' W 076°17'0 0.0
2018-Jan-12 00:30N 36°50' W 076°17'2 4.3
2018-Jan-12 00:00N 36°50' W 076°15'1 1.7
2018-Jan-11 23:30N 36°50' W 076°16'1 2.6
2018-Jan-11 23:00N 36°50' W 076°17'0 0.0
2018-Jan-11 22:28N 36°50' W 076°17'0 0.0
2018-Jan-11 22:00N 36°50' W 076°17'0 0.0
2018-Jan-11 21:30N 36°50' W 076°17'0 0.0
2018-Jan-11 20:31N 36°50' W 076°17'0 0.0
2018-Jan-11 20:30N 36°50' W 076°17'0 0.0
2018-Jan-11 20:00N 36°50' W 076°17'0 0.0
2018-Jan-11 19:30N 36°50' W 076°17'0 0.0
2018-Jan-11 19:00N 36°50' W 076°17'0 0.0
2018-Jan-11 18:30N 36°50' W 076°17'0 0.0
2018-Jan-11 18:00N 36°50' W 076°17'0 0.0
2018-Jan-11 17:30N 36°50' W 076°17'0 0.0
2018-Jan-11 17:00N 36°50' W 076°17'0 0.0
2018-Jan-11 16:30N 36°50' W 076°17'0 0.0
2018-Jan-11 16:00N 36°50' W 076°17'0 0.0
2018-Jan-11 15:30N 36°50' W 076°17'0 0.0
2018-Jan-11 15:00N 36°50' W 076°17'0 0.0
2018-Jan-11 14:30N 36°50' W 076°17'0 0.0
2018-Jan-11 14:00N 36°50' W 076°17'0 0.0
2018-Jan-11 13:30N 36°50' W 076°17'0 0.0
2018-Jan-11 13:00N 36°50' W 076°17'0 0.0
2018-Jan-11 12:30N 36°50' W 076°17'0 0.0
2018-Jan-11 12:00N 36°50' W 076°17'0 0.0
2018-Jan-11 11:30N 36°50' W 076°17'0 0.0
2018-Jan-11 10:52N 36°50' W 076°17'0 0.0
2018-Jan-11 10:30N 36°50' W 076°17'0 0.0
2018-Jan-11 10:00N 36°50' W 076°17'0 0.0
2018-Jan-11 09:30N 36°50' W 076°17'0 0.0
2018-Jan-11 09:00N 36°50' W 076°17'0 0.0
2018-Jan-11 08:30N 36°50' W 076°17'0 0.0
2018-Jan-11 08:00N 36°50' W 076°17'0 0.0
2018-Jan-11 07:30N 36°50' W 076°17'0 0.0
2018-Jan-11 07:00N 36°50' W 076°17'0 0.0
2018-Jan-11 06:30N 36°50' W 076°17'0 0.0
2018-Jan-11 06:00N 36°50' W 076°17'0 0.0
2018-Jan-11 05:30N 36°50' W 076°17'0 0.0
2018-Jan-11 04:59N 36°50' W 076°17'0 0.0
2018-Jan-11 04:29N 36°50' W 076°17'0 0.0
2018-Jan-11 04:00N 36°50' W 076°17'0 0.0
2018-Jan-11 03:30N 36°50' W 076°17'0 0.0
2018-Jan-11 03:00N 36°50' W 076°17'0 0.0
2018-Jan-11 02:30N 36°50' W 076°17'0 0.0
2018-Jan-11 01:59N 36°50' W 076°17'0 0.0
2018-Jan-11 01:30N 36°50' W 076°17'0 0.0
2018-Jan-11 01:00N 36°50' W 076°17'0 0.0
2018-Jan-11 00:30N 36°50' W 076°17'0 0.0
2018-Jan-11 00:00N 36°50' W 076°17'0 0.0
2018-Jan-10 23:30N 36°50' W 076°17'0 0.0
2018-Jan-10 23:00N 36°50' W 076°17'0 0.0
2018-Jan-10 22:30N 36°50' W 076°17'0 0.0
2018-Jan-10 22:00N 36°50' W 076°17'0 0.0
2018-Jan-10 21:30N 36°50' W 076°17'0 0.0
2018-Jan-10 21:00N 36°50' W 076°17'0 0.0
2018-Jan-10 20:30N 36°50' W 076°17'0 0.0
2018-Jan-10 20:00N 36°50' W 076°17'0 0.0
2018-Jan-10 19:30N 36°50' W 076°17'0 0.0
2018-Jan-10 18:59N 36°50' W 076°17'0 0.0
2018-Jan-10 18:30N 36°50' W 076°17'0 0.0
2018-Jan-10 17:58N 36°50' W 076°17'1 1.6
2018-Jan-10 17:30N 36°50' W 076°18'2 3.8
2018-Jan-10 17:00N 36°48' W 076°18'3 5.7
2018-Jan-10 16:30N 36°51' W 076°17'0 0.1
2018-Jan-10 16:00N 36°51' W 076°17'2 4.7
2018-Jan-10 15:30N 36°51' W 076°20'2 3.6
2018-Jan-10 15:00N 36°51' W 076°18'  

Dump ship's entire track history